createdAt,value
2023-03-30T00:00:06.585Z,85
2023-03-30T00:03:31.939Z,85
2023-03-30T00:06:57.091Z,85
2023-03-30T00:10:22.427Z,85
2023-03-30T00:13:47.672Z,85
2023-03-30T00:17:12.882Z,85
2023-03-30T00:20:38.148Z,85
2023-03-30T00:24:03.375Z,85
2023-03-30T00:27:28.622Z,85
2023-03-30T00:30:53.864Z,84
2023-03-30T00:34:19.105Z,84
2023-03-30T00:37:44.337Z,84
2023-03-30T00:41:09.676Z,84
2023-03-30T00:44:34.816Z,84
2023-03-30T00:48:01.062Z,84
2023-03-30T00:51:26.220Z,84
2023-03-30T00:54:51.468Z,84
2023-03-30T00:58:16.735Z,84
2023-03-30T01:01:42.087Z,84
2023-03-30T01:05:07.288Z,83
2023-03-30T01:08:32.624Z,83
2023-03-30T01:11:57.773Z,83
2023-03-30T01:15:23.023Z,83
2023-03-30T01:18:48.273Z,83
2023-03-30T01:22:13.578Z,83
2023-03-30T01:25:38.758Z,82
2023-03-30T01:29:03.984Z,82
2023-03-30T01:32:29.245Z,82
2023-03-30T01:35:54.525Z,82
2023-03-30T01:39:19.741Z,81
2023-03-30T01:42:44.962Z,81
2023-03-30T01:46:10.270Z,81
2023-03-30T01:49:35.496Z,81
2023-03-30T01:53:00.735Z,80
2023-03-30T01:56:26.042Z,80
2023-03-30T01:59:51.304Z,80
2023-03-30T02:03:16.654Z,79
2023-03-30T02:06:41.839Z,79
2023-03-30T02:10:07.098Z,78
2023-03-30T02:13:32.387Z,78
2023-03-30T02:16:57.624Z,78
2023-03-30T02:20:22.894Z,78
2023-03-30T02:23:48.144Z,78
2023-03-30T02:27:13.407Z,78
2023-03-30T02:30:38.642Z,78
2023-03-30T02:34:03.840Z,77
2023-03-30T02:37:29.118Z,77
2023-03-30T02:40:54.346Z,77
2023-03-30T02:44:19.613Z,77
2023-03-30T02:47:44.969Z,78
2023-03-30T02:51:10.139Z,78
2023-03-30T02:54:35.364Z,77
2023-03-30T02:58:00.625Z,77
2023-03-30T03:01:25.900Z,78
2023-03-30T03:04:51.162Z,77
2023-03-30T03:08:16.383Z,77
2023-03-30T03:11:41.635Z,77
2023-03-30T03:15:06.885Z,77
2023-03-30T03:18:32.134Z,77
2023-03-30T03:21:57.395Z,77
2023-03-30T03:25:22.570Z,77
2023-03-30T03:28:47.779Z,77
2023-03-30T03:32:13.016Z,77
2023-03-30T03:35:38.222Z,77
2023-03-30T03:39:03.834Z,77
2023-03-30T03:42:28.618Z,77
2023-03-30T03:45:53.828Z,77
2023-03-30T03:49:19.048Z,77
2023-03-30T03:52:44.265Z,77
2023-03-30T03:56:09.488Z,77
2023-03-30T03:59:34.656Z,77
2023-03-30T04:02:59.857Z,77
2023-03-30T04:06:25.119Z,77
2023-03-30T04:09:50.334Z,77
2023-03-30T04:13:15.546Z,77
2023-03-30T04:16:40.819Z,77
2023-03-30T04:20:05.887Z,77
2023-03-30T04:23:31.124Z,77
2023-03-30T04:26:56.336Z,77
2023-03-30T04:30:21.541Z,77
2023-03-30T04:33:47.926Z,76
2023-03-30T04:37:11.892Z,77
2023-03-30T04:40:37.057Z,76
2023-03-30T04:44:02.246Z,76
2023-03-30T04:47:27.445Z,77
2023-03-30T04:50:52.578Z,77
2023-03-30T04:54:17.800Z,77
2023-03-30T04:57:43.031Z,77
2023-03-30T05:01:08.317Z,78
2023-03-30T05:04:33.525Z,78
2023-03-30T05:07:58.685Z,78
2023-03-30T05:11:23.844Z,78
2023-03-30T05:14:49.065Z,78
2023-03-30T05:18:14.303Z,78
2023-03-30T05:21:39.506Z,78
2023-03-30T05:25:04.669Z,78
2023-03-30T05:28:31.893Z,78
2023-03-30T05:31:55.098Z,78
2023-03-30T05:35:20.284Z,78
2023-03-30T05:38:45.545Z,78
2023-03-30T05:42:10.765Z,78
2023-03-30T05:45:36.015Z,78
2023-03-30T05:49:01.400Z,78
2023-03-30T05:52:26.788Z,78
2023-03-30T05:55:52.143Z,77
2023-03-30T05:59:17.427Z,77
2023-03-30T06:02:42.762Z,77
2023-03-30T06:06:08.003Z,78
2023-03-30T06:09:33.313Z,78
2023-03-30T06:12:58.633Z,78
2023-03-30T06:16:23.897Z,79
2023-03-30T06:19:50.109Z,79
2023-03-30T06:23:15.353Z,79
2023-03-30T06:26:40.607Z,79
2023-03-30T06:30:05.922Z,79
2023-03-30T06:33:31.214Z,79
2023-03-30T06:36:56.589Z,80
2023-03-30T06:40:21.871Z,80
2023-03-30T06:43:47.163Z,79
2023-03-30T06:47:12.506Z,80
2023-03-30T06:50:37.750Z,80
2023-03-30T06:54:03.103Z,80
2023-03-30T06:57:28.421Z,81
2023-03-30T07:00:53.666Z,81
2023-03-30T07:04:19.102Z,82
2023-03-30T07:07:44.275Z,82
2023-03-30T07:11:09.735Z,82
2023-03-30T07:14:35.310Z,83
2023-03-30T07:18:00.834Z,83
2023-03-30T07:21:26.507Z,83
2023-03-30T07:24:52.541Z,84
2023-03-30T07:28:18.151Z,86
2023-03-30T07:31:43.911Z,87
2023-03-30T07:35:09.472Z,89
2023-03-30T07:38:35.294Z,89
2023-03-30T07:42:01.023Z,89
2023-03-30T07:45:26.868Z,89
2023-03-30T07:48:52.750Z,90
2023-03-30T07:52:18.538Z,90
2023-03-30T07:55:44.345Z,90
2023-03-30T07:59:10.057Z,90
2023-03-30T08:02:35.821Z,91
2023-03-30T08:06:01.501Z,92
2023-03-30T08:09:27.270Z,93
2023-03-30T08:12:53.070Z,93
2023-03-30T08:16:18.711Z,94
2023-03-30T08:19:44.327Z,94
2023-03-30T08:23:09.940Z,95
2023-03-30T08:26:35.459Z,95
2023-03-30T08:30:00.807Z,96
2023-03-30T08:33:26.208Z,96
2023-03-30T08:36:51.675Z,96
2023-03-30T08:40:18.595Z,96
2023-03-30T08:43:42.586Z,96
2023-03-30T08:47:07.964Z,97
2023-03-30T08:50:33.130Z,97
2023-03-30T08:53:58.396Z,97
2023-03-30T08:57:23.649Z,98
2023-03-30T09:00:48.876Z,98
2023-03-30T09:04:14.171Z,98
2023-03-30T09:07:39.420Z,98
2023-03-30T09:11:04.885Z,98
2023-03-30T09:14:29.846Z,97
2023-03-30T09:17:55.131Z,97
2023-03-30T09:21:20.320Z,97
2023-03-30T09:24:45.505Z,97
2023-03-30T09:28:10.735Z,97
2023-03-30T09:31:35.934Z,97
2023-03-30T09:35:01.185Z,98
2023-03-30T09:38:26.451Z,98
2023-03-30T09:41:51.731Z,98
2023-03-30T09:45:16.988Z,98
2023-03-30T09:48:42.343Z,98
2023-03-30T09:52:07.598Z,98
2023-03-30T09:55:32.856Z,97
2023-03-30T09:58:58.083Z,97
2023-03-30T10:02:23.391Z,96
2023-03-30T10:05:48.606Z,96
2023-03-30T10:09:13.866Z,95
2023-03-30T10:12:39.113Z,96
2023-03-30T10:16:04.570Z,95
2023-03-30T10:19:29.567Z,95
2023-03-30T10:22:54.807Z,95
2023-03-30T10:26:20.083Z,95
2023-03-30T10:29:45.337Z,93
2023-03-30T10:33:10.574Z,93
2023-03-30T10:36:35.777Z,92
2023-03-30T10:40:01.554Z,93
2023-03-30T10:43:26.798Z,91
2023-03-30T10:46:52.075Z,91
2023-03-30T10:50:17.236Z,91
2023-03-30T10:53:42.459Z,90
2023-03-30T10:57:07.760Z,90
2023-03-30T11:00:32.967Z,90
2023-03-30T11:03:58.964Z,89
2023-03-30T11:07:23.489Z,90
2023-03-30T11:10:48.758Z,89
2023-03-30T11:14:14.054Z,89
2023-03-30T11:17:39.352Z,89
2023-03-30T11:21:04.708Z,90
2023-03-30T11:24:29.971Z,89
2023-03-30T11:27:56.455Z,90
2023-03-30T11:31:20.630Z,90
2023-03-30T11:34:45.936Z,90
2023-03-30T11:38:11.272Z,90
2023-03-30T11:41:36.535Z,90
2023-03-30T11:45:01.836Z,91
2023-03-30T11:48:27.209Z,91
2023-03-30T11:51:52.525Z,90
2023-03-30T11:55:17.869Z,90
2023-03-30T11:58:43.156Z,88
2023-03-30T12:02:08.513Z,88
2023-03-30T12:05:33.829Z,88
2023-03-30T12:08:59.150Z,88
2023-03-30T12:12:24.504Z,87
2023-03-30T12:15:49.830Z,87
2023-03-30T12:19:15.168Z,86
2023-03-30T12:22:40.523Z,86
2023-03-30T12:26:05.876Z,87
2023-03-30T12:29:48.511Z,86
2023-03-30T12:32:56.369Z,86
2023-03-30T12:36:21.632Z,86
2023-03-30T12:39:46.952Z,87
2023-03-30T12:43:12.308Z,87
2023-03-30T12:46:37.726Z,88
2023-03-30T12:50:02.934Z,87
2023-03-30T12:53:28.294Z,85
2023-03-30T12:56:53.626Z,85
2023-03-30T13:00:18.998Z,85
2023-03-30T13:03:44.322Z,84
2023-03-30T13:07:09.649Z,85
2023-03-30T13:10:34.996Z,84
2023-03-30T13:14:00.377Z,86
2023-03-30T13:17:25.740Z,85
2023-03-30T13:20:51.114Z,84
2023-03-30T13:24:16.380Z,85
2023-03-30T13:27:41.906Z,85
2023-03-30T13:31:07.850Z,82
2023-03-30T13:34:32.675Z,83
2023-03-30T13:37:58.100Z,83
2023-03-30T13:41:23.397Z,82
2023-03-30T13:44:49.064Z,81
2023-03-30T13:48:14.526Z,79
2023-03-30T13:51:39.866Z,80
2023-03-30T13:55:05.335Z,80
2023-03-30T13:58:30.682Z,79
2023-03-30T14:01:56.098Z,79
2023-03-30T14:05:21.576Z,82
2023-03-30T14:08:46.884Z,79
2023-03-30T14:12:12.250Z,81
2023-03-30T14:15:37.698Z,82
2023-03-30T14:19:03.098Z,79
2023-03-30T14:22:28.488Z,80
2023-03-30T14:25:53.882Z,79
2023-03-30T14:29:28.541Z,79
2023-03-30T14:32:44.666Z,77
2023-03-30T14:36:10.001Z,78
2023-03-30T14:39:35.383Z,78
2023-03-30T14:43:00.751Z,78
2023-03-30T14:46:26.172Z,78
2023-03-30T14:49:51.432Z,73
2023-03-30T14:53:16.791Z,76
2023-03-30T14:56:42.146Z,79
2023-03-30T15:00:07.453Z,84
2023-03-30T15:03:34.165Z,88
2023-03-30T15:41:08.908Z,91
2023-03-30T15:44:34.860Z,92
2023-03-30T15:48:00.182Z,91
2023-03-30T15:51:25.439Z,91
2023-03-30T15:54:50.737Z,90
2023-03-30T15:58:15.996Z,91
2023-03-30T16:01:41.279Z,91
2023-03-30T16:05:06.542Z,89
2023-03-30T16:08:31.797Z,89
2023-03-30T16:11:57.040Z,89
2023-03-30T16:15:22.334Z,89
2023-03-30T16:18:47.557Z,90
2023-03-30T16:22:12.854Z,90
2023-03-30T16:25:44.988Z,89
2023-03-30T16:29:03.473Z,89
2023-03-30T16:32:35.326Z,89
2023-03-30T16:35:54.078Z,88
2023-03-30T16:39:19.350Z,90
2023-03-30T16:42:44.638Z,89
2023-03-30T16:46:10.156Z,88
2023-03-30T16:49:35.468Z,88
2023-03-30T16:53:00.749Z,89
2023-03-30T16:56:26.315Z,88
2023-03-30T16:59:51.616Z,89
2023-03-30T17:03:17.503Z,89
2023-03-30T17:06:43.520Z,89
2023-03-30T17:10:09.566Z,89
2023-03-30T17:13:35.644Z,90
2023-03-30T17:17:01.955Z,90
2023-03-30T17:20:27.604Z,90
2023-03-30T17:23:53.612Z,90
2023-03-30T17:27:19.503Z,90
2023-03-30T17:30:46.466Z,90
2023-03-30T17:34:12.403Z,90
2023-03-30T17:37:38.160Z,90
2023-03-30T17:41:03.910Z,90
2023-03-30T17:44:29.563Z,90
2023-03-30T17:47:55.293Z,90
2023-03-30T17:51:21.565Z,90
2023-03-30T17:54:47.107Z,90
2023-03-30T17:58:12.443Z,90
2023-03-30T18:01:37.773Z,90
2023-03-30T18:05:03.111Z,90
2023-03-30T18:08:28.766Z,91
2023-03-30T18:11:54.491Z,91
2023-03-30T18:15:20.823Z,91
2023-03-30T18:18:46.684Z,91
2023-03-30T18:22:12.276Z,90
2023-03-30T18:25:37.770Z,90
2023-03-30T18:29:03.497Z,90
2023-03-30T18:32:37.179Z,91
2023-03-30T18:35:54.804Z,91
2023-03-30T18:39:20.938Z,91
2023-03-30T18:42:47.004Z,92
2023-03-30T18:46:13.071Z,91
2023-03-30T18:49:38.742Z,92
2023-03-30T18:53:04.621Z,92
2023-03-30T18:56:30.453Z,92
2023-03-30T18:59:56.469Z,92
2023-03-30T19:03:22.608Z,92
2023-03-30T19:06:48.371Z,92
2023-03-30T19:10:14.241Z,92
2023-03-30T19:13:40.099Z,92
2023-03-30T19:17:05.990Z,92
2023-03-30T19:20:31.851Z,93
2023-03-30T19:23:57.686Z,93
2023-03-30T19:27:23.537Z,93
2023-03-30T19:30:49.418Z,93
2023-03-30T19:34:15.243Z,93
2023-03-30T19:37:41.161Z,93
2023-03-30T19:41:07.312Z,92
2023-03-30T19:44:32.754Z,92
2023-03-30T19:47:58.407Z,92
2023-03-30T19:51:24.045Z,92
2023-03-30T19:54:49.425Z,93
2023-03-30T19:58:14.848Z,93
2023-03-30T20:01:40.183Z,93
2023-03-30T20:05:05.557Z,93
2023-03-30T20:08:30.922Z,93
2023-03-30T20:11:56.255Z,92
2023-03-30T20:15:21.617Z,92
2023-03-30T20:18:46.956Z,92
2023-03-30T20:22:12.331Z,92
2023-03-30T20:25:37.656Z,92
2023-03-30T20:29:02.989Z,92
2023-03-30T20:32:28.412Z,92
2023-03-30T20:35:53.735Z,92
2023-03-30T20:39:19.088Z,92
2023-03-30T20:42:44.476Z,92
2023-03-30T20:46:10.013Z,93
2023-03-30T20:49:35.251Z,93
2023-03-30T20:53:00.566Z,93
2023-03-30T20:56:25.898Z,93
2023-03-30T20:59:51.265Z,93
2023-03-30T21:03:16.654Z,93
2023-03-30T21:06:42.072Z,93
2023-03-30T21:10:07.393Z,93
2023-03-30T21:13:32.738Z,93
2023-03-30T21:16:58.110Z,93
2023-03-30T21:20:23.413Z,93
2023-03-30T21:23:48.801Z,93
2023-03-30T21:27:14.154Z,93
2023-03-30T21:30:39.600Z,93
2023-03-30T21:34:04.940Z,93
2023-03-30T21:37:30.327Z,93
2023-03-30T21:40:55.720Z,92
2023-03-30T21:44:21.098Z,92
2023-03-30T21:47:46.497Z,92
2023-03-30T21:51:11.806Z,92
2023-03-30T21:54:37.201Z,92
2023-03-30T21:58:02.610Z,92
2023-03-30T22:01:27.964Z,92
2023-03-30T22:04:53.277Z,92
2023-03-30T22:08:18.641Z,93
2023-03-30T22:11:44.011Z,93
2023-03-30T22:15:09.335Z,93
2023-03-30T22:18:34.656Z,93
2023-03-30T22:22:00.037Z,93
2023-03-30T22:25:25.386Z,93
2023-03-30T22:28:50.707Z,93
2023-03-30T22:32:16.036Z,93
2023-03-30T22:35:41.349Z,92
2023-03-30T22:39:06.684Z,93
2023-03-30T22:42:32.021Z,92
2023-03-30T22:45:57.370Z,92
2023-03-30T22:49:22.751Z,92
2023-03-30T22:52:48.062Z,92
2023-03-30T22:56:13.378Z,92
2023-03-30T22:59:38.734Z,92
2023-03-30T23:03:04.171Z,92
2023-03-30T23:06:29.487Z,92
2023-03-30T23:09:54.792Z,92
2023-03-30T23:13:20.122Z,92
2023-03-30T23:16:45.444Z,92
2023-03-30T23:20:10.773Z,92
2023-03-30T23:23:36.161Z,92
2023-03-30T23:27:01.483Z,92
2023-03-30T23:30:26.869Z,92
2023-03-30T23:33:52.225Z,92
2023-03-30T23:37:17.590Z,92
2023-03-30T23:40:42.936Z,92
2023-03-30T23:44:08.310Z,92
2023-03-30T23:47:33.708Z,92
2023-03-30T23:50:59.037Z,92
2023-03-30T23:54:24.388Z,92
2023-03-30T23:57:49.783Z,92
